Time;durP1;ratioP1;P1;durP2;ratioP2;P2;SDS_P1;SDS_P2;PMS_P1;PMS_P2;Temp;Humidity;BMP_temperature;BMP_pressure;BME280_temperature;BME280_humidity;BME280_pressure;Samples;Min_cycle;Max_cycle;Signal;HPM_P1;HPM_P2
2022/02/03 00:00:08;;;;;;;14.05;9.15;;;9.60;76.70;;;;;;5038354;28;20021;-76
2022/02/03 00:02:47;;;;;;;15.30;10.10;;;9.50;77.30;;;;;;5020941;28;20148;-76
2022/02/03 00:05:21;;;;;;;16.08;9.20;;;9.50;77.10;;;;;;5019703;28;20084;-76
2022/02/03 00:07:58;;;;;;;16.88;10.15;;;9.40;77.40;;;;;;5020201;28;20022;-76
2022/02/03 00:24:53;;;;;;;16.58;9.77;;;9.00;79.00;;;;;;5019467;28;20099;-76
2022/02/03 00:27:33;;;;;;;19.67;11.20;;;8.90;79.10;;;;;;5019584;28;20018;-75
2022/02/03 00:30:04;;;;;;;15.20;9.70;;;8.90;79.50;;;;;;5019429;28;20022;-76
2022/02/03 00:50:00;;;;;;;18.92;10.80;;;8.70;80.20;;;;;;5040065;28;20060;-76
2022/02/03 00:52:27;;;;;;;20.52;11.70;;;8.70;80.60;;;;;;5038443;28;20049;-76
2022/02/03 00:54:53;;;;;;;20.30;10.57;;;8.70;80.80;;;;;;5038717;28;20084;-76
2022/02/03 00:57:31;;;;;;;19.90;11.63;;;8.70;80.50;;;;;;5038629;28;20074;-76
2022/02/03 01:00:08;;;;;;;19.70;11.38;;;8.60;80.90;;;;;;5038875;28;20056;-76
2022/02/03 01:02:41;;;;;;;20.45;10.98;;;8.60;81.00;;;;;;5038362;28;20043;-75
2022/02/03 01:05:08;;;;;;;20.17;10.60;;;8.50;81.60;;;;;;5038511;28;20021;-76
2022/02/03 01:07:38;;;;;;;20.50;11.52;;;8.50;81.40;;;;;;5038496;28;20064;-76
2022/02/03 01:10:14;;;;;;;28.58;12.80;;;8.60;81.40;;;;;;5038632;28;20430;-75
2022/02/03 01:13:10;;;;;;;25.13;11.23;;;8.50;81.40;;;;;;5038535;28;20131;-75
2022/02/03 01:15:51;;;;;;;23.08;11.68;;;8.50;81.60;;;;;;5038195;28;20032;-75
2022/02/03 01:19:03;;;;;;;24.42;13.27;;;8.50;81.70;;;;;;5038344;28;20032;-76
2022/02/03 01:46:10;;;;;;;18.90;10.23;;;8.10;83.00;;;;;;5018167;28;20034;-76
2022/02/03 01:54:04;;;;;;;26.05;11.85;;;8.20;82.70;;;;;;5017947;28;20045;-76
2022/02/03 01:56:55;;;;;;;23.58;12.25;;;8.30;82.90;;;;;;5033269;28;20029;-76
2022/02/03 01:59:28;;;;;;;23.50;12.38;;;8.40;82.10;;;;;;5017983;28;20026;-76
2022/02/03 02:02:03;;;;;;;22.75;12.45;;;8.30;82.10;;;;;;5017923;28;20172;-75
2022/02/03 02:04:47;;;;;;;25.38;12.20;;;8.30;82.20;;;;;;5016253;28;20026;-76
2022/02/03 02:07:46;;;;;;;25.67;11.40;;;8.50;81.90;;;;;;5017619;28;20029;-76
2022/02/03 02:13:48;;;;;;;18.00;11.07;;;8.70;81.60;;;;;;5017721;28;20082;-75
2022/02/03 02:19:28;;;;;;;18.00;10.10;;;8.40;81.50;;;;;;5022266;28;20021;-76
2022/02/03 02:40:03;;;;;;;19.02;10.43;;;7.90;83.20;;;;;;5056616;28;20025;-76
2022/02/03 02:42:57;;;;;;;21.75;11.25;;;8.00;83.40;;;;;;5057090;28;20017;-76
2022/02/03 02:45:30;;;;;;;21.80;10.93;;;8.00;83.20;;;;;;5056620;28;20364;-76
2022/02/03 02:48:07;;;;;;;22.40;10.07;;;8.10;83.10;;;;;;5057021;28;20056;-76
2022/02/03 02:50:54;;;;;;;23.08;11.77;;;8.10;82.80;;;;;;5056883;28;20135;-76
2022/02/03 02:54:26;;;;;;;19.73;11.25;;;8.10;82.80;;;;;;5056845;28;20028;-76
2022/02/03 03:33:18;;;;;;;24.40;12.48;;;7.90;82.90;;;;;;5036639;28;20034;-76
2022/02/03 03:35:59;;;;;;;17.85;9.40;;;7.90;82.60;;;;;;5036507;28;20025;-75
2022/02/03 03:38:31;;;;;;;23.50;11.10;;;7.90;82.60;;;;;;5036538;28;20105;-76
2022/02/03 03:40:59;;;;;;;20.10;11.18;;;7.90;82.50;;;;;;5036459;28;20388;-76
2022/02/03 03:43:38;;;;;;;22.17;11.30;;;7.80;83.10;;;;;;5036380;28;20080;-76
2022/02/03 03:46:18;;;;;;;24.70;11.55;;;7.80;83.40;;;;;;5036523;28;20457;-76
2022/02/03 03:49:09;;;;;;;24.23;10.02;;;7.90;83.30;;;;;;5036556;28;20018;-76
2022/02/03 03:51:57;;;;;;;19.75;10.48;;;8.00;82.90;;;;;;5036334;28;20443;-76
2022/02/03 03:54:36;;;;;;;19.23;9.18;;;8.20;82.70;;;;;;5035038;28;20048;-76
2022/02/03 04:35:12;;;;;;;25.70;11.98;;;8.60;80.50;;;;;;5058951;28;20055;-76
2022/02/03 04:38:00;;;;;;;17.50;9.32;;;8.70;80.40;;;;;;5058841;28;20032;-76
2022/02/03 05:05:41;;;;;;;23.30;10.32;;;8.70;80.60;;;;;;5056362;28;20029;-76
2022/02/03 05:08:49;;;;;;;23.92;11.27;;;8.60;80.80;;;;;;5058388;28;20033;-75
2022/02/03 05:12:00;;;;;;;18.63;9.85;;;8.50;81.60;;;;;;5058552;28;20394;-76
2022/02/03 05:21:32;;;;;;;13.27;7.65;;;8.50;81.30;;;;;;5046697;28;20034;-75
2022/02/03 05:26:57;;;;;;;12.35;6.53;;;8.50;81.20;;;;;;5038358;28;20388;-75
2022/02/03 05:45:23;;;;;;;9.02;4.80;;;8.60;81.40;;;;;;5037710;28;20105;-75
2022/02/03 06:15:37;;;;;;;14.85;7.07;;;6.70;89.60;;;;;;5073792;28;20070;-77
2022/02/03 06:23:30;;;;;;;17.10;7.93;;;7.70;87.70;;;;;;5072414;28;20028;-80
2022/02/03 06:28:47;;;;;;;19.35;8.60;;;7.90;86.50;;;;;;5070437;28;20094;-79
2022/02/03 06:31:12;;;;;;;17.38;7.90;;;8.00;85.80;;;;;;5073783;28;20040;-77
2022/02/03 06:33:38;;;;;;;20.65;8.93;;;8.00;85.50;;;;;;5073589;28;20025;-79
2022/02/03 06:36:04;;;;;;;16.55;7.95;;;8.10;85.50;;;;;;5073820;28;20025;-79
2022/02/03 06:38:31;;;;;;;14.13;7.05;;;8.10;84.90;;;;;;5073527;28;20399;-79
2022/02/03 06:40:57;;;;;;;18.60;7.05;;;8.10;85.20;;;;;;5073217;28;20021;-77
2022/02/03 06:43:22;;;;;;;17.77;7.97;;;8.00;85.70;;;;;;5073791;28;20078;-79
2022/02/03 06:45:58;;;;;;;15.85;7.50;;;8.20;85.40;;;;;;5073864;28;20082;-79
2022/02/03 06:48:25;;;;;;;17.15;8.15;;;8.20;85.00;;;;;;5073746;28;20027;-79
2022/02/03 06:50:59;;;;;;;18.15;7.95;;;8.30;84.30;;;;;;5073660;28;20022;-79
2022/02/03 06:53:29;;;;;;;18.98;8.73;;;8.10;85.10;;;;;;5073453;28;20021;-79
2022/02/03 06:56:06;;;;;;;22.83;9.02;;;8.20;85.50;;;;;;5073593;28;20019;-80
2022/02/03 06:58:45;;;;;;;17.55;8.65;;;8.20;85.40;;;;;;5055537;28;20025;-77
2022/02/03 07:01:14;;;;;;;18.98;7.85;;;8.30;85.20;;;;;;5073495;28;20023;-80
2022/02/03 07:03:44;;;;;;;20.52;9.23;;;8.30;85.00;;;;;;5073359;28;20025;-76
2022/02/03 07:06:12;;;;;;;20.30;9.07;;;8.40;84.50;;;;;;5073423;28;20390;-80
2022/02/03 07:08:40;;;;;;;20.23;8.75;;;8.40;84.60;;;;;;5073316;28;20029;-80
2022/02/03 07:11:05;;;;;;;19.95;9.00;;;8.50;84.40;;;;;;5071156;28;20509;-79
2022/02/03 07:13:34;;;;;;;16.65;8.48;;;8.50;84.00;;;;;;5072420;28;20029;-77
2022/02/03 07:15:59;;;;;;;22.35;10.07;;;8.40;84.00;;;;;;5072057;28;20021;-77
2022/02/03 07:18:25;;;;;;;20.30;8.95;;;8.50;83.60;;;;;;5055307;28;20039;-77
2022/02/03 07:20:51;;;;;;;21.88;9.43;;;8.50;83.80;;;;;;5090334;28;20048;-77
2022/02/03 07:23:17;;;;;;;23.40;10.50;;;8.50;83.90;;;;;;5084856;28;20104;-77
2022/02/03 07:25:43;;;;;;;22.42;9.40;;;8.60;83.90;;;;;;5078065;28;20044;-77
2022/02/03 07:28:08;;;;;;;21.42;9.55;;;8.50;84.10;;;;;;5079252;28;20044;-77
2022/02/03 07:30:35;;;;;;;19.75;9.48;;;8.40;83.90;;;;;;5079306;28;20025;-76
2022/02/03 07:33:02;;;;;;;20.08;8.82;;;8.20;84.40;;;;;;5061595;28;20033;-76
2022/02/03 07:35:30;;;;;;;22.95;10.23;;;8.30;84.80;;;;;;5079057;28;20036;-79
2022/02/03 07:37:56;;;;;;;22.52;8.85;;;8.30;84.40;;;;;;5079508;28;20024;-77
2022/02/03 07:40:22;;;;;;;18.95;8.82;;;8.30;84.90;;;;;;5079102;28;20020;-77
2022/02/03 07:42:50;;;;;;;20.33;8.95;;;8.30;84.40;;;;;;5078892;28;20033;-77
2022/02/03 07:45:18;;;;;;;19.33;8.32;;;8.20;84.80;;;;;;5079031;28;20036;-77
2022/02/03 07:47:48;;;;;;;17.02;8.23;;;8.10;84.80;;;;;;5079163;28;20025;-79
2022/02/03 07:50:15;;;;;;;17.20;6.85;;;8.20;85.50;;;;;;5078790;28;20048;-79
2022/02/03 07:52:41;;;;;;;17.33;7.60;;;8.20;84.80;;;;;;5078876;28;20111;-77
2022/02/03 07:55:08;;;;;;;15.40;7.15;;;8.20;85.30;;;;;;5079091;28;20028;-77
2022/02/03 07:57:34;;;;;;;14.88;7.57;;;8.30;85.00;;;;;;5078957;28;20047;-77
2022/02/03 08:00:00;;;;;;;16.10;8.02;;;8.30;84.80;;;;;;5060802;28;20115;-77
2022/02/03 08:02:26;;;;;;;17.88;7.65;;;8.20;85.30;;;;;;5078529;28;20067;-77
2022/02/03 08:04:53;;;;;;;17.77;8.40;;;8.20;85.20;;;;;;5078491;28;20016;-77
2022/02/03 08:07:21;;;;;;;18.10;8.60;;;8.30;85.00;;;;;;5077242;28;20021;-79
2022/02/03 08:09:58;;;;;;;17.45;6.90;;;8.20;84.60;;;;;;5077465;28;20021;-79
2022/02/03 08:12:29;;;;;;;13.85;6.05;;;8.30;85.10;;;;;;5061712;28;20080;-79
2022/02/03 08:14:55;;;;;;;14.98;6.93;;;8.30;84.50;;;;;;5058524;28;20499;-77
2022/02/03 08:17:26;;;;;;;14.10;6.38;;;8.30;84.20;;;;;;5058627;28;20021;-79
2022/02/03 08:20:00;;;;;;;14.32;6.68;;;8.20;84.50;;;;;;5049944;28;20028;-79
2022/02/03 08:22:35;;;;;;;14.48;6.82;;;8.10;85.00;;;;;;5078212;28;20028;-77
2022/02/03 08:25:16;;;;;;;19.67;7.72;;;8.20;84.90;;;;;;5078316;28;20065;-80
2022/02/03 08:30:36;;;;;;;15.20;6.90;;;8.50;84.30;;;;;;5078714;28;20485;-79
2022/02/03 08:32:58;;;;;;;10.98;6.43;;;8.60;84.20;;;;;;5077091;28;20037;-80
2022/02/03 08:35:58;;;;;;;13.23;5.95;;;8.70;83.60;;;;;;5076877;28;20488;-77
2022/02/03 08:38:27;;;;;;;10.10;5.30;;;8.70;83.30;;;;;;5073927;28;20024;-79
2022/02/03 08:43:20;;;;;;;10.50;4.75;;;9.00;82.40;;;;;;5078085;28;20060;-79
2022/02/03 08:45:46;;;;;;;10.15;4.57;;;9.20;82.00;;;;;;5059509;28;20025;-80
2022/02/03 08:48:14;;;;;;;9.02;4.57;;;9.10;81.70;;;;;;5059918;28;20051;-77
2022/02/03 08:50:40;;;;;;;8.73;5.10;;;8.90;81.40;;;;;;5078165;28;20055;-77
2022/02/03 08:53:18;;;;;;;8.70;4.25;;;8.90;82.20;;;;;;5077664;28;20032;-77
2022/02/03 10:02:23;;;;;;;4.85;3.13;;;9.00;81.30;;;;;;5076538;28;20090;-79
2022/02/03 10:07:25;;;;;;;4.13;2.65;;;9.20;81.00;;;;;;5076828;28;20029;-79
2022/02/03 10:09:56;;;;;;;7.40;3.38;;;9.20;80.30;;;;;;5076933;28;20509;-80
2022/02/03 10:12:36;;;;;;;5.75;2.88;;;9.30;80.60;;;;;;5060311;28;20040;-79
2022/02/03 10:15:03;;;;;;;;;;;9.30;80.80;;;;;;5056950;28;20025;-80
2022/02/03 10:17:39;;;;;;;5.50;3.42;;;9.30;80.80;;;;;;5056640;28;19912;-80
2022/02/03 10:20:09;;;;;;;4.40;2.72;;;9.40;80.10;;;;;;5067594;28;20390;-80
2022/02/03 10:22:48;;;;;;;4.72;3.20;;;9.40;80.30;;;;;;5076118;28;20100;-80
2022/02/03 10:25:22;;;;;;;4.82;3.03;;;9.50;80.20;;;;;;5076574;28;20095;-80
2022/02/03 10:28:00;;;;;;;7.22;2.85;;;9.50;79.80;;;;;;5058390;28;20029;-80
2022/02/03 10:30:33;;;;;;;3.58;2.38;;;9.70;79.60;;;;;;5076587;28;20016;-80
2022/02/03 10:32:59;;;;;;;4.03;2.63;;;9.70;80.00;;;;;;5076516;28;20029;-80
2022/02/03 10:35:42;;;;;;;4.97;3.28;;;9.70;79.70;;;;;;5076165;28;20423;-79
2022/02/03 11:03:01;;;;;;;3.70;2.45;;;10.20;78.90;;;;;;5079701;28;20063;-80
2022/02/03 11:08:14;;;;;;;4.22;2.45;;;10.30;78.70;;;;;;5079782;28;20020;-80
2022/02/03 11:10:43;;;;;;;5.38;2.63;;;10.30;78.60;;;;;;5059738;28;20044;-80
2022/02/03 11:13:10;;;;;;;3.50;2.33;;;10.40;78.10;;;;;;5059364;28;20033;-80
2022/02/03 11:15:36;;;;;;;3.88;2.65;;;10.40;78.30;;;;;;5058312;28;20077;-78
2022/02/03 11:18:06;;;;;;;5.72;2.60;;;10.40;78.20;;;;;;5041501;28;20029;-80
2022/02/03 11:20:37;;;;;;;3.58;2.55;;;10.30;78.30;;;;;;5056674;28;20031;-80
2022/02/03 11:28:49;;;;;;;4.13;2.13;;;10.70;78.50;;;;;;5079287;28;20021;-81
2022/02/03 11:37:28;;;;;;;3.63;2.40;;;11.30;76.30;;;;;;5079299;28;20087;-79
2022/02/03 11:48:59;;;;;;;3.33;2.42;;;11.40;76.30;;;;;;5059370;28;20079;-79
2022/02/03 12:16:56;;;;;;;4.20;2.20;;;11.40;74.50;;;;;;5058602;28;20044;-77
2022/02/03 12:19:36;;;;;;;4.03;2.45;;;11.30;76.00;;;;;;5063984;28;20024;-78
2022/02/03 12:22:25;;;;;;;3.80;2.30;;;11.30;76.10;;;;;;5078086;28;20031;-77
2022/02/03 12:25:11;;;;;;;4.30;2.72;;;11.20;76.00;;;;;;5078376;28;20135;-78
2022/02/03 12:28:05;;;;;;;5.18;2.58;;;11.40;75.40;;;;;;5076750;28;20027;-78
2022/02/03 12:30:51;;;;;;;3.13;2.15;;;11.50;75.30;;;;;;5078933;28;20020;-78
2022/02/03 12:38:55;;;;;;;4.38;3.10;;;11.20;75.70;;;;;;5078641;28;20032;-75
2022/02/03 12:41:32;;;;;;;4.15;2.78;;;11.40;75.90;;;;;;5078210;28;20028;-74
2022/02/03 12:44:02;;;;;;;4.88;2.60;;;11.20;76.30;;;;;;5078415;28;20017;-75
2022/02/03 12:46:28;;;;;;;4.35;3.25;;;11.40;76.00;;;;;;5078224;28;20021;-75
2022/02/03 12:48:56;;;;;;;4.38;3.20;;;11.50;75.80;;;;;;5077861;28;20035;-75
2022/02/03 12:51:23;;;;;;;6.07;3.17;;;11.70;75.70;;;;;;5078082;28;20086;-76
2022/02/03 12:53:49;;;;;;;4.82;2.85;;;11.50;75.10;;;;;;5077762;28;20055;-74
2022/02/03 12:56:15;;;;;;;5.30;2.97;;;11.40;75.50;;;;;;5077989;28;20024;-75
2022/02/03 12:58:45;;;;;;;4.55;3.22;;;11.50;75.60;;;;;;5077521;28;20023;-75
2022/02/03 13:01:15;;;;;;;3.60;2.50;;;11.50;75.50;;;;;;5077452;28;20025;-75
2022/02/03 13:03:47;;;;;;;4.45;2.85;;;11.60;75.50;;;;;;5077373;28;20024;-75
2022/02/03 13:06:20;;;;;;;4.88;3.42;;;11.60;75.60;;;;;;5077565;28;20046;-75
2022/02/03 13:08:59;;;;;;;4.63;3.30;;;11.70;75.60;;;;;;5076968;28;20386;-75
2022/02/03 13:11:32;;;;;;;3.70;2.50;;;11.70;75.60;;;;;;5068805;28;20356;-75
2022/02/03 13:17:12;;;;;;;4.70;3.22;;;11.70;76.00;;;;;;5057531;28;20056;-75
2022/02/03 13:22:15;;;;;;;3.42;2.35;;;11.70;76.00;;;;;;5076710;28;20043;-75
2022/02/03 13:33:13;;;;;;;3.22;2.08;;;11.90;75.30;;;;;;5076896;28;20032;-78
2022/02/03 13:35:49;;;;;;;3.70;2.70;;;11.90;75.20;;;;;;5077474;28;20028;-75
2022/02/03 13:38:32;;;;;;;4.35;3.17;;;12.00;75.20;;;;;;5076598;28;20051;-77
2022/02/03 13:41:12;;;;;;;3.88;2.80;;;12.10;74.90;;;;;;5064085;28;20558;-78
2022/02/03 13:43:43;;;;;;;3.07;2.37;;;12.10;75.50;;;;;;5077196;28;20021;-77
2022/02/03 13:46:12;;;;;;;3.95;3.05;;;11.90;75.30;;;;;;5077432;28;20025;-78
2022/02/03 13:48:39;;;;;;;5.03;2.92;;;12.00;75.50;;;;;;5077146;28;20471;-78
2022/02/03 13:51:10;;;;;;;4.18;2.80;;;12.10;75.40;;;;;;5077395;28;20049;-78
2022/02/03 13:53:45;;;;;;;;;;;12.10;75.50;;;;;;5077565;28;20028;-78
2022/02/03 14:21:14;;;;;;;2.63;2.22;;;12.20;76.00;;;;;;5075141;28;20039;-78
2022/02/03 14:29:19;;;;;;;3.33;2.20;;;12.30;75.40;;;;;;5076083;28;20028;-78
2022/02/03 14:31:53;;;;;;;4.60;2.70;;;12.30;75.00;;;;;;5056232;28;20021;-78
2022/02/03 14:34:26;;;;;;;6.82;2.50;;;12.30;74.60;;;;;;5059195;28;20025;-78
2022/02/03 14:37:01;;;;;;;5.85;2.42;;;12.40;74.80;;;;;;5059947;28;20029;-78
2022/02/03 14:42:22;;;;;;;3.90;3.00;;;12.30;74.90;;;;;;5042480;28;20077;-78
2022/02/03 14:44:49;;;;;;;3.83;2.17;;;12.30;75.20;;;;;;5075284;28;20028;-78
2022/02/03 14:47:15;;;;;;;2.95;2.22;;;12.40;75.30;;;;;;5059437;28;20063;-77
2022/02/03 14:49:44;;;;;;;3.75;2.58;;;12.50;75.00;;;;;;5059691;28;20017;-78
2022/02/03 14:52:25;;;;;;;3.65;2.25;;;12.50;75.00;;;;;;5059751;28;20025;-78
2022/02/03 15:00:22;;;;;;;3.40;2.50;;;12.40;75.30;;;;;;5059687;28;20060;-78
2022/02/03 15:02:49;;;;;;;3.53;2.20;;;12.30;75.00;;;;;;5059336;28;20032;-78
2022/02/03 15:05:23;;;;;;;3.58;2.45;;;12.20;75.60;;;;;;5059145;28;20032;-77
2022/02/03 15:07:55;;;;;;;3.53;2.10;;;12.10;75.90;;;;;;5059130;28;20044;-78
2022/02/03 15:11:07;;;;;;;3.70;2.42;;;12.10;75.80;;;;;;5059440;28;20392;-78
2022/02/03 15:13:31;;;;;;;2.67;2.08;;;12.00;75.90;;;;;;5031273;28;20029;-78
2022/02/03 15:15:59;;;;;;;3.95;2.22;;;12.20;75.90;;;;;;5039243;28;20426;-78
2022/02/03 15:18:26;;;;;;;3.55;2.20;;;12.40;75.90;;;;;;5038092;28;20025;-78
2022/02/03 15:20:51;;;;;;;4.00;2.35;;;12.50;75.40;;;;;;5054489;28;20025;-78
2022/02/03 15:23:17;;;;;;;2.63;2.35;;;12.50;75.10;;;;;;5056223;28;20029;-77
2022/02/03 15:25:42;;;;;;;3.60;2.72;;;12.50;74.70;;;;;;5048697;28;20025;-78
2022/02/03 15:28:08;;;;;;;5.05;2.92;;;12.40;75.20;;;;;;5049165;28;20121;-78
2022/02/03 15:30:34;;;;;;;3.53;2.63;;;12.30;75.60;;;;;;5054993;28;20029;-78
2022/02/03 15:33:00;;;;;;;3.60;2.28;;;12.30;75.80;;;;;;5059061;28;20092;-78
2022/02/03 15:35:31;;;;;;;4.57;2.70;;;12.20;75.80;;;;;;5059482;28;20104;-79
2022/02/03 15:37:59;;;;;;;3.13;2.40;;;12.20;76.20;;;;;;5048559;28;20033;-78
2022/02/03 15:40:28;;;;;;;4.72;2.60;;;12.20;76.00;;;;;;5060132;28;20017;-78
2022/02/03 15:43:05;;;;;;;4.13;3.10;;;12.20;76.10;;;;;;5058677;28;20029;-78
2022/02/03 15:45:36;;;;;;;4.38;2.70;;;12.10;76.70;;;;;;5058544;28;20025;-78
2022/02/03 15:56:27;;;;;;;4.30;1.92;;;12.00;78.10;;;;;;5058606;28;20563;-78
2022/02/03 16:01:51;;;;;;;6.15;3.17;;;11.80;79.10;;;;;;5058325;28;20024;-78
2022/02/03 16:17:58;;;;;;;3.92;2.70;;;11.60;80.90;;;;;;5058077;28;20059;-78
2022/02/03 16:20:33;;;;;;;4.90;2.75;;;11.60;80.70;;;;;;5062877;28;20032;-78
2022/02/03 16:50:36;;;;;;;7.18;5.20;;;11.20;82.70;;;;;;5057963;28;20031;-79
2022/02/03 16:53:02;;;;;;;7.32;4.60;;;11.20;82.60;;;;;;5058359;28;20029;-79
2022/02/03 16:55:34;;;;;;;8.15;5.03;;;11.10;82.90;;;;;;5057666;28;20053;-78
2022/02/03 16:58:01;;;;;;;7.65;5.28;;;11.10;83.20;;;;;;5056777;28;20090;-78
2022/02/03 17:00:27;;;;;;;8.55;5.68;;;11.10;83.20;;;;;;5054647;28;20036;-78
2022/02/03 17:02:54;;;;;;;6.95;4.65;;;11.00;83.40;;;;;;5039568;28;20108;-79
2022/02/03 17:05:20;;;;;;;6.50;4.10;;;10.90;83.70;;;;;;5055815;28;20017;-79
2022/02/03 17:07:46;;;;;;;6.45;4.70;;;10.90;83.60;;;;;;5051488;28;20028;-79
2022/02/03 17:10:11;;;;;;;5.10;4.22;;;11.00;84.00;;;;;;5075867;28;20016;-78
2022/02/03 17:12:37;;;;;;;5.50;3.63;;;11.00;83.90;;;;;;5058904;28;20053;-79
2022/02/03 17:15:03;;;;;;;4.90;3.75;;;11.10;83.60;;;;;;5056781;28;20029;-79
2022/02/03 17:17:30;;;;;;;4.00;3.08;;;11.10;83.60;;;;;;5057054;28;20033;-79
2022/02/03 17:19:56;;;;;;;3.08;2.20;;;11.20;83.40;;;;;;5066815;28;20016;-78
2022/02/03 17:22:29;;;;;;;4.40;2.58;;;11.10;83.40;;;;;;5048982;28;20040;-78
2022/02/03 17:27:38;;;;;;;2.85;2.40;;;11.20;83.30;;;;;;5053358;28;20021;-78
2022/02/03 17:30:10;;;;;;;2.83;2.33;;;11.20;83.00;;;;;;5039142;28;20079;-78
2022/02/03 18:32:29;;;;;;;4.90;4.13;;;10.50;85.70;;;;;;5035665;28;20052;-78
2022/02/03 18:53:08;;;;;;;6.30;5.38;;;10.80;85.30;;;;;;5050968;28;20036;-80
2022/02/03 18:56:05;;;;;;;5.30;4.53;;;10.70;85.40;;;;;;5047001;28;20040;-78
2022/02/03 19:26:08;;;;;;;8.68;5.88;;;10.80;85.50;;;;;;5058670;28;20021;-78
2022/02/03 20:07:09;;;;;;;11.35;8.13;;;11.00;85.20;;;;;;5057399;28;20017;-77
2022/02/03 20:12:19;;;;;;;9.63;7.50;;;11.10;84.90;;;;;;5054776;28;20056;-78
2022/02/03 20:14:44;;;;;;;8.00;6.40;;;11.10;85.10;;;;;;5041109;28;20570;-77
2022/02/03 20:17:12;;;;;;;10.10;6.68;;;11.00;85.10;;;;;;5055468;28;20028;-84
2022/02/03 20:19:38;;;;;;;9.65;6.55;;;11.00;85.10;;;;;;5049340;28;20562;-83
2022/02/03 20:22:05;;;;;;;7.03;5.88;;;11.00;85.30;;;;;;5056206;28;20095;-81
2022/02/03 20:24:35;;;;;;;7.68;5.65;;;10.90;85.30;;;;;;5049312;28;20029;-79
2022/02/03 20:27:01;;;;;;;10.35;6.40;;;11.00;85.30;;;;;;5049755;28;20020;-79
2022/02/03 20:29:27;;;;;;;9.27;6.68;;;10.90;85.20;;;;;;5059936;28;20088;-79
2022/02/03 20:31:55;;;;;;;8.23;6.85;;;10.90;85.50;;;;;;5050415;28;20025;-79
2022/02/03 20:34:22;;;;;;;8.68;6.55;;;10.90;85.30;;;;;;5052625;28;20029;-79
2022/02/03 20:36:48;;;;;;;11.82;6.90;;;10.90;85.40;;;;;;5065889;28;20074;-79
2022/02/03 20:39:14;;;;;;;10.70;6.72;;;11.00;85.20;;;;;;5049371;28;20029;-80
2022/02/03 20:41:40;;;;;;;8.30;6.70;;;11.00;85.00;;;;;;5064910;28;20090;-79
2022/02/03 20:44:05;;;;;;;8.55;5.90;;;11.00;84.80;;;;;;5058617;28;20132;-79
2022/02/03 20:46:32;;;;;;;9.55;6.63;;;11.00;84.80;;;;;;5057355;28;20502;-81
2022/02/03 20:48:58;;;;;;;7.63;6.10;;;11.00;84.80;;;;;;5055450;28;20028;-80
2022/02/03 20:51:24;;;;;;;10.50;6.50;;;11.00;84.60;;;;;;5038865;28;20616;-81
2022/02/03 20:53:50;;;;;;;8.82;6.78;;;11.00;85.00;;;;;;5030999;28;20029;-79
2022/02/03 20:56:17;;;;;;;9.75;6.13;;;11.00;84.80;;;;;;5044360;28;20022;-80
2022/02/03 20:58:44;;;;;;;8.77;6.63;;;11.00;84.80;;;;;;5051614;28;20106;-80
2022/02/03 21:01:17;;;;;;;10.45;6.63;;;11.00;84.80;;;;;;5030433;28;20021;-80
2022/02/03 21:03:46;;;;;;;10.88;7.28;;;10.90;84.80;;;;;;5029213;28;20025;-79
2022/02/03 21:06:14;;;;;;;9.82;7.00;;;10.90;85.30;;;;;;5030696;28;20021;-79
2022/02/03 21:08:44;;;;;;;9.88;7.18;;;10.90;85.10;;;;;;5052556;28;20092;-79
2022/02/03 21:11:10;;;;;;;10.48;7.68;;;10.90;85.20;;;;;;5053681;28;20080;-82
2022/02/03 21:13:36;;;;;;;10.75;7.43;;;10.90;85.00;;;;;;5055844;28;20021;-80
2022/02/03 21:16:04;;;;;;;9.65;6.95;;;10.90;85.00;;;;;;5055116;28;20029;-82
2022/02/03 21:18:37;;;;;;;10.23;7.38;;;10.90;85.10;;;;;;5038673;28;20067;-80
2022/02/03 21:21:03;;;;;;;12.63;8.45;;;10.90;85.10;;;;;;5058619;28;20487;-81
2022/02/03 21:23:28;;;;;;;11.15;7.70;;;10.90;85.00;;;;;;5028330;28;20104;-83
2022/02/03 21:25:56;;;;;;;13.05;7.75;;;10.90;85.10;;;;;;5028194;28;20056;-79
2022/02/03 21:28:28;;;;;;;11.18;6.97;;;10.90;85.10;;;;;;5054732;28;20021;-79
2022/02/03 21:30:55;;;;;;;11.35;7.57;;;10.90;85.10;;;;;;5057122;28;20025;-78
2022/02/03 21:33:28;;;;;;;12.27;7.00;;;10.90;84.80;;;;;;5054583;28;20530;-79
2022/02/03 21:35:57;;;;;;;10.88;7.53;;;10.80;84.90;;;;;;5054612;28;20036;-79
2022/02/03 21:38:23;;;;;;;10.85;7.50;;;10.80;85.10;;;;;;5055562;28;20408;-78
2022/02/03 21:40:49;;;;;;;11.65;7.70;;;10.80;85.10;;;;;;5052983;28;20048;-79
2022/02/03 21:43:15;;;;;;;10.85;7.05;;;10.80;85.10;;;;;;5036135;28;20070;-79
2022/02/03 21:45:44;;;;;;;10.68;7.43;;;10.80;85.10;;;;;;5051957;28;20025;-79
2022/02/03 21:48:09;;;;;;;11.25;7.22;;;10.80;85.00;;;;;;5036949;28;20539;-79
2022/02/03 21:50:39;;;;;;;10.52;7.22;;;10.80;85.10;;;;;;5055182;28;20028;-78
2022/02/03 21:53:15;;;;;;;8.98;6.78;;;10.80;85.20;;;;;;5048277;28;20036;-79
2022/02/03 21:55:41;;;;;;;11.82;7.55;;;10.80;84.90;;;;;;5037280;28;20021;-79
2022/02/03 21:58:07;;;;;;;9.77;7.05;;;10.80;84.80;;;;;;5050508;28;20048;-78
2022/02/03 22:00:33;;;;;;;11.02;7.35;;;10.90;85.00;;;;;;5055625;28;20025;-78
2022/02/03 22:02:58;;;;;;;9.50;7.32;;;10.90;84.80;;;;;;5047475;28;20108;-79
2022/02/03 22:05:24;;;;;;;10.55;7.35;;;10.90;84.50;;;;;;5046805;28;20043;-79
2022/02/03 22:07:50;;;;;;;10.35;7.22;;;10.90;84.70;;;;;;5051010;28;20021;-79
2022/02/03 22:10:20;;;;;;;10.18;7.00;;;10.90;84.50;;;;;;5051668;28;20100;-78
2022/02/03 22:12:47;;;;;;;10.00;7.00;;;11.00;84.50;;;;;;5048994;28;20049;-79
2022/02/03 22:15:13;;;;;;;9.13;6.72;;;11.00;84.50;;;;;;5052493;28;20171;-78
2022/02/03 22:17:40;;;;;;;12.18;8.18;;;11.00;84.30;;;;;;5055433;28;20056;-79
2022/02/03 22:20:14;;;;;;;10.95;7.88;;;10.90;84.40;;;;;;5058740;28;20070;-79
2022/02/03 22:39:20;;;;;;;14.00;7.90;;;10.80;85.20;;;;;;5040987;28;20509;-79
2022/02/03 22:44:53;;;;;;;12.18;7.57;;;10.80;85.00;;;;;;5056667;28;20032;-79
2022/02/03 22:49:43;;;;;;;12.70;8.45;;;10.80;85.00;;;;;;5056694;28;20041;-79
2022/02/03 22:52:10;;;;;;;12.02;8.65;;;10.80;84.70;;;;;;5056307;28;20025;-79
2022/02/03 22:54:35;;;;;;;10.50;8.00;;;10.80;85.00;;;;;;5058281;28;20033;-79
2022/02/03 22:57:01;;;;;;;12.32;8.73;;;10.80;84.90;;;;;;5042224;28;20493;-79
2022/02/03 23:01:53;;;;;;;12.80;7.97;;;10.80;84.70;;;;;;5059997;28;20100;-79
2022/02/03 23:04:19;;;;;;;12.15;8.82;;;10.80;84.70;;;;;;5059931;28;20063;-79
2022/02/03 23:06:45;;;;;;;13.40;8.88;;;10.80;84.80;;;;;;5060044;28;20092;-79
2022/02/03 23:09:32;;;;;;;13.23;8.60;;;10.80;84.70;;;;;;5041827;28;20021;-79
2022/02/03 23:12:12;;;;;;;11.32;7.53;;;10.90;84.40;;;;;;5055085;28;20041;-79
2022/02/03 23:18:02;;;;;;;12.90;8.15;;;10.80;84.50;;;;;;5040003;28;20034;-79
2022/02/03 23:20:10;;;;;;;12.00;7.97;;;10.80;84.60;;;;;;5056079;28;20044;-79
2022/02/03 23:22:37;;;;;;;14.02;8.10;;;10.80;84.40;;;;;;5079476;28;20024;-79
2022/02/03 23:25:09;;;;;;;14.90;8.10;;;10.80;84.20;;;;;;5079489;28;20044;-79
2022/02/03 23:30:14;;;;;;;16.65;8.13;;;10.80;84.50;;;;;;5079540;28;20034;-79
2022/02/03 23:32:40;;;;;;;11.15;6.75;;;10.80;84.30;;;;;;5062269;28;20013;-80
2022/02/03 23:35:22;;;;;;;10.85;8.15;;;10.70;84.50;;;;;;5059399;28;20104;-79
2022/02/03 23:49:38;;;;;;;8.75;4.55;;;10.50;80.50;;;;;;5059582;28;20021;-80
